Terminal Aerodrome Forecast
Issued by NWS Grand Forks, ND

Home | Current Version | Previous Version | Text Only | Print | Product List | Glossary Off
Versions: 1 2 3 4 5 6 7 8 9 10 11 12 13 14 15 16 17 18

480
FTUS43 KFGF 160532
TAFFAR
TAF
KFAR 160532Z 1606/1706 34013KT 5SM BLSN OVC015
     FM160700 33009KT P6SM SCT015
     FM161400 26005KT P6SM SCT250
     FM162000 19012KT P6SM FEW250=

USA.gov is the U.S. government's official web portal to all federal, state and local government web resources and services.